Time;durP1;ratioP1;P1;durP2;ratioP2;P2;SDS_P1;SDS_P2;PMS_P1;PMS_P2;Temp;Humidity;BMP_temperature;BMP_pressure;BME280_temperature;BME280_humidity;BME280_pressure;Samples;Min_cycle;Max_cycle;Signal;HPM_P1;HPM_P2
2021/12/18 00:02:11;;;;;;;9.60;7.00;;;8.60;99.90;;;;;;5048700;28;20463;-84
2021/12/18 00:04:40;;;;;;;11.37;8.00;;;8.60;99.90;;;;;;5055387;28;20452;-84
2021/12/18 00:07:08;;;;;;;11.60;8.10;;;8.70;99.90;;;;;;5054422;28;20455;-84
2021/12/18 00:09:36;;;;;;;13.07;8.10;;;8.60;99.90;;;;;;5061297;28;20487;-84
2021/12/18 00:12:06;;;;;;;12.73;7.57;;;8.30;99.90;;;;;;5056571;28;20982;-83
2021/12/18 00:14:35;;;;;;;10.83;6.53;;;8.20;99.90;;;;;;5052322;28;20835;-86
2021/12/18 00:17:04;;;;;;;11.40;6.87;;;8.10;99.90;;;;;;5055511;28;20459;-81
2021/12/18 00:19:32;;;;;;;12.60;8.40;;;8.10;99.90;;;;;;5058032;28;20486;-81
2021/12/18 00:22:01;;;;;;;10.07;6.70;;;8.10;99.90;;;;;;5059401;28;20473;-81
2021/12/18 00:24:31;;;;;;;11.30;7.50;;;8.20;99.90;;;;;;5052932;28;20470;-80
2021/12/18 00:27:00;;;;;;;13.20;7.90;;;8.20;99.90;;;;;;5060909;28;20660;-83
2021/12/18 00:29:28;;;;;;;12.50;6.97;;;8.30;99.90;;;;;;5059825;28;21028;-83
2021/12/18 00:31:58;;;;;;;9.87;6.83;;;8.40;99.90;;;;;;5060780;28;20450;-84
2021/12/18 00:34:26;;;;;;;11.20;7.27;;;8.40;99.90;;;;;;5055995;28;20489;-82
2021/12/18 00:36:54;;;;;;;11.00;7.43;;;8.50;99.90;;;;;;5059039;28;20480;-81
2021/12/18 00:39:23;;;;;;;12.40;7.60;;;8.50;99.90;;;;;;5058313;28;20505;-85
2021/12/18 00:42:07;;;;;;;9.40;6.77;;;8.50;99.90;;;;;;5057068;28;20458;-82
2021/12/18 00:44:36;;;;;;;10.70;7.50;;;8.50;99.90;;;;;;5057365;28;20793;-81
2021/12/18 00:47:06;;;;;;;11.13;8.23;;;8.50;99.90;;;;;;5051004;28;20844;-85
2021/12/18 00:49:35;;;;;;;12.30;7.40;;;8.50;99.90;;;;;;5053768;28;20477;-83
2021/12/18 00:52:03;;;;;;;12.47;7.93;;;8.50;99.90;;;;;;5052659;28;20463;-81
2021/12/18 00:54:31;;;;;;;13.77;6.97;;;8.50;99.90;;;;;;5047474;28;20463;-82
2021/12/18 00:57:00;;;;;;;12.37;6.93;;;8.50;99.90;;;;;;5058540;28;20474;-83
2021/12/18 00:59:28;;;;;;;13.47;7.93;;;8.50;99.90;;;;;;5055156;28;21020;-81
2021/12/18 01:01:56;;;;;;;10.73;8.00;;;8.50;99.90;;;;;;5056428;28;20480;-82
2021/12/18 01:04:27;;;;;;;10.83;7.13;;;8.50;99.90;;;;;;5058904;28;20456;-84
2021/12/18 01:06:55;;;;;;;10.10;7.90;;;8.50;99.90;;;;;;5055089;28;20459;-81
2021/12/18 01:09:37;;;;;;;13.87;7.57;;;8.50;99.90;;;;;;5058796;28;20471;-80
2021/12/18 01:12:07;;;;;;;11.80;7.90;;;8.40;99.90;;;;;;5055009;28;20454;-81
2021/12/18 01:14:49;;;;;;;11.20;6.57;;;8.50;99.90;;;;;;5056500;28;20467;-81
2021/12/18 01:22:51;;;;;;;13.50;7.70;;;8.40;99.90;;;;;;5055986;28;20470;-84
2021/12/18 01:25:21;;;;;;;13.07;8.17;;;8.40;99.90;;;;;;5054847;28;20807;-83
2021/12/18 01:27:49;;;;;;;15.53;9.90;;;8.40;99.90;;;;;;5055670;28;20790;-83
2021/12/18 01:30:19;;;;;;;15.60;9.17;;;8.40;99.90;;;;;;5059723;28;20822;-82
2021/12/18 01:32:49;;;;;;;14.23;7.90;;;8.40;99.90;;;;;;5053995;28;20458;-84
2021/12/18 01:35:19;;;;;;;14.20;9.10;;;8.50;99.90;;;;;;5055556;28;20491;-82
2021/12/18 01:37:49;;;;;;;15.33;8.70;;;8.50;99.90;;;;;;5052170;28;20772;-82
2021/12/18 01:40:18;;;;;;;11.20;8.03;;;8.40;99.90;;;;;;5049965;28;20978;-83
2021/12/18 01:45:43;;;;;;;14.07;7.90;;;8.40;99.90;;;;;;5057509;28;20459;-84
2021/12/18 01:51:23;;;;;;;12.97;7.27;;;8.30;99.90;;;;;;5052769;28;20519;-86
2021/12/18 01:53:54;;;;;;;13.60;7.73;;;7.90;99.90;;;;;;5052338;28;20455;-83
2021/12/18 01:56:24;;;;;;;10.70;7.90;;;8.00;99.90;;;;;;5061579;28;20955;-83
2021/12/18 01:58:53;;;;;;;13.20;9.03;;;8.00;99.90;;;;;;5056537;28;20484;-82
2021/12/18 02:01:22;;;;;;;16.50;7.80;;;8.00;99.90;;;;;;5057559;28;21138;-82
2021/12/18 02:03:50;;;;;;;13.60;7.00;;;8.00;99.90;;;;;;5050953;28;20482;-84
2021/12/18 02:06:20;;;;;;;11.00;7.23;;;8.00;99.90;;;;;;5060669;28;20510;-83
2021/12/18 02:08:48;;;;;;;13.57;8.43;;;8.00;99.90;;;;;;5055574;28;20942;-81
2021/12/18 02:11:27;;;;;;;13.30;8.10;;;8.00;99.90;;;;;;5055753;28;20475;-83
2021/12/18 02:14:09;;;;;;;11.37;7.60;;;8.10;99.90;;;;;;5056180;28;20666;-82
2021/12/18 02:22:12;;;;;;;12.13;8.17;;;8.10;99.90;;;;;;5058138;28;20490;-83
2021/12/18 02:24:41;;;;;;;12.60;7.00;;;8.10;99.90;;;;;;5054440;28;20956;-81
2021/12/18 02:27:09;;;;;;;11.20;7.17;;;8.10;99.90;;;;;;5053094;28;20455;-85
2021/12/18 02:29:39;;;;;;;12.57;7.97;;;8.20;99.90;;;;;;5054153;28;20528;-80
2021/12/18 02:32:12;;;;;;;14.40;7.97;;;8.10;99.90;;;;;;5056320;28;20460;-81
2021/12/18 02:34:41;;;;;;;11.60;7.97;;;8.00;99.90;;;;;;5056936;28;20491;-83
2021/12/18 02:37:12;;;;;;;12.57;7.30;;;8.00;99.90;;;;;;5061348;28;20455;-82
2021/12/18 02:40:45;;;;;;;13.17;8.00;;;8.00;99.90;;;;;;5053853;28;20490;-84
2021/12/18 02:42:43;;;;;;;11.53;7.10;;;7.90;99.90;;;;;;5055234;28;20466;-81
2021/12/18 02:45:12;;;;;;;15.10;8.00;;;7.90;99.90;;;;;;5056340;28;20522;-81
2021/12/18 02:47:40;;;;;;;12.93;8.90;;;8.00;99.90;;;;;;5049385;28;20451;-82
2021/12/18 02:50:09;;;;;;;11.70;7.93;;;8.00;99.90;;;;;;5055689;28;20467;-80
2021/12/18 02:52:38;;;;;;;13.13;7.07;;;7.90;99.90;;;;;;5054036;28;20966;-84
2021/12/18 02:55:08;;;;;;;13.40;7.83;;;7.70;99.90;;;;;;5063037;28;20579;-82
2021/12/18 02:57:36;;;;;;;10.90;7.40;;;7.70;99.90;;;;;;5062434;28;20522;-81
2021/12/18 03:00:06;;;;;;;13.37;7.77;;;7.70;99.90;;;;;;5059866;28;20879;-82
2021/12/18 03:02:37;;;;;;;11.80;7.83;;;7.70;99.90;;;;;;5054900;28;20467;-86
2021/12/18 03:05:08;;;;;;;11.57;8.57;;;7.80;99.90;;;;;;5057651;28;20448;-83
2021/12/18 03:07:37;;;;;;;12.10;7.93;;;7.80;99.90;;;;;;5060324;28;20466;-82
2021/12/18 03:24:28;;;;;;;10.50;7.20;;;7.70;99.90;;;;;;5022302;28;20942;-83
2021/12/18 03:26:57;;;;;;;12.30;7.90;;;7.60;99.90;;;;;;5054672;28;20462;-83
2021/12/18 03:29:25;;;;;;;13.27;7.23;;;7.50;99.90;;;;;;5056110;28;20472;-82
2021/12/18 03:31:53;;;;;;;18.00;7.60;;;7.50;99.90;;;;;;5055626;28;20462;-83
2021/12/18 03:34:22;;;;;;;12.30;7.13;;;7.30;99.90;;;;;;5060815;28;20448;-82
2021/12/18 03:36:51;;;;;;;13.20;7.43;;;7.30;99.90;;;;;;5053581;28;20452;-81
2021/12/18 03:39:20;;;;;;;16.97;8.63;;;7.30;99.90;;;;;;5058128;28;20493;-81
2021/12/18 03:41:51;;;;;;;13.97;9.67;;;7.20;99.90;;;;;;5054415;28;20450;-84
2021/12/18 03:44:21;;;;;;;16.00;7.83;;;7.20;99.90;;;;;;5059803;28;20834;-84
2021/12/18 03:46:49;;;;;;;12.90;7.93;;;7.30;99.90;;;;;;5060388;28;20534;-82
2021/12/18 03:49:17;;;;;;;14.90;8.90;;;7.20;99.90;;;;;;5058280;28;20463;-83
2021/12/18 03:51:46;;;;;;;14.30;9.00;;;7.30;99.90;;;;;;5055364;28;20960;-81
2021/12/18 03:54:14;;;;;;;16.33;8.73;;;7.30;99.90;;;;;;5056199;28;20462;-83
2021/12/18 03:56:42;;;;;;;15.30;8.37;;;7.40;99.90;;;;;;5053390;28;20478;-83
2021/12/18 03:59:10;;;;;;;14.93;7.70;;;7.50;99.90;;;;;;5056477;28;20475;-82
2021/12/18 04:01:40;;;;;;;16.10;8.03;;;7.50;99.90;;;;;;5053488;28;20479;-82
2021/12/18 04:04:08;;;;;;;12.67;7.90;;;7.50;99.90;;;;;;5055573;28;20468;-84
2021/12/18 04:06:39;;;;;;;15.97;8.50;;;7.50;99.90;;;;;;5059925;28;20488;-83
2021/12/18 04:09:07;;;;;;;14.90;8.20;;;7.50;99.90;;;;;;5055196;28;20946;-81
2021/12/18 04:11:35;;;;;;;17.87;9.10;;;7.50;99.90;;;;;;5058627;28;20459;-84
2021/12/18 04:14:04;;;;;;;17.77;9.33;;;7.50;99.90;;;;;;5055510;28;20459;-84
2021/12/18 04:16:32;;;;;;;14.53;7.80;;;7.40;99.90;;;;;;5053877;28;20466;-85
2021/12/18 04:19:02;;;;;;;15.90;8.07;;;7.40;99.90;;;;;;5054165;28;20473;-82
2021/12/18 04:21:30;;;;;;;14.90;8.30;;;7.40;99.90;;;;;;5056996;28;20477;-81
2021/12/18 04:23:59;;;;;;;13.67;7.90;;;7.40;99.90;;;;;;5052290;28;20456;-81
2021/12/18 04:26:27;;;;;;;15.73;8.27;;;7.40;99.90;;;;;;5047550;28;20458;-80
2021/12/18 04:28:56;;;;;;;19.13;10.07;;;7.40;99.90;;;;;;5054802;28;20452;-81
2021/12/18 04:31:24;;;;;;;15.03;7.93;;;7.40;99.90;;;;;;5054209;28;20443;-82
2021/12/18 04:33:52;;;;;;;14.90;7.23;;;7.40;99.90;;;;;;5046970;28;20443;-84
2021/12/18 04:36:22;;;;;;;14.20;7.47;;;7.40;99.90;;;;;;5052290;28;20965;-83
2021/12/18 04:38:51;;;;;;;12.90;7.63;;;7.30;99.90;;;;;;5052479;28;20455;-82
2021/12/18 04:41:23;;;;;;;12.73;7.27;;;7.20;99.90;;;;;;5052465;28;20479;-84
2021/12/18 04:43:53;;;;;;;13.77;6.90;;;7.10;99.90;;;;;;5056588;28;20454;-82
2021/12/18 04:46:21;;;;;;;15.17;7.93;;;7.10;99.90;;;;;;5057728;28;20504;-81
2021/12/18 04:48:50;;;;;;;14.97;6.87;;;6.90;99.90;;;;;;5049087;28;20478;-81
2021/12/18 04:51:18;;;;;;;17.03;8.43;;;6.80;99.90;;;;;;5054497;28;20591;-84
2021/12/18 04:53:47;;;;;;;16.27;7.77;;;6.80;99.90;;;;;;5054747;28;20508;-83
2021/12/18 04:56:16;;;;;;;13.90;7.57;;;6.90;99.90;;;;;;5055251;28;20479;-83
2021/12/18 04:58:44;;;;;;;17.77;8.82;;;6.90;99.90;;;;;;5052778;28;20465;-79
2021/12/18 05:01:12;;;;;;;14.77;9.07;;;6.90;99.90;;;;;;5050307;28;20228;-83
2021/12/18 05:03:41;;;;;;;18.77;9.80;;;7.00;99.90;;;;;;5056914;28;20459;-83
2021/12/18 05:06:10;;;;;;;18.23;9.70;;;7.00;99.90;;;;;;5055709;28;20520;-82
2021/12/18 05:08:38;;;;;;;14.53;6.90;;;7.00;99.90;;;;;;5059527;28;20515;-85
2021/12/18 05:11:08;;;;;;;18.03;9.23;;;7.30;99.90;;;;;;5058698;28;21267;-82
2021/12/18 05:13:36;;;;;;;15.23;8.53;;;7.10;99.90;;;;;;5056386;28;20451;-83
2021/12/18 05:16:05;;;;;;;15.30;7.90;;;7.00;99.90;;;;;;5055556;28;20454;-82
2021/12/18 05:18:33;;;;;;;11.37;6.20;;;6.90;99.90;;;;;;5050365;28;20551;-81
2021/12/18 05:21:01;;;;;;;14.13;6.40;;;6.80;99.90;;;;;;5054355;28;20826;-82
2021/12/18 05:23:29;;;;;;;15.67;6.80;;;6.80;99.90;;;;;;5061136;28;20867;-83
2021/12/18 05:25:57;;;;;;;13.27;6.97;;;6.80;99.90;;;;;;5061010;28;20450;-81
2021/12/18 05:28:27;;;;;;;12.40;7.33;;;6.80;99.90;;;;;;5066458;28;20460;-80
2021/12/18 05:30:55;;;;;;;11.83;6.33;;;6.90;99.90;;;;;;5056773;28;20494;-81
2021/12/18 05:33:23;;;;;;;13.97;7.03;;;6.70;99.90;;;;;;5060779;28;20478;-81
2021/12/18 05:35:52;;;;;;;13.77;7.60;;;6.80;99.90;;;;;;5059353;28;20455;-81
2021/12/18 05:38:20;;;;;;;13.87;7.53;;;6.80;99.90;;;;;;5061577;28;20461;-81
2021/12/18 05:40:48;;;;;;;12.53;8.10;;;6.90;99.90;;;;;;5057860;28;20576;-81
2021/12/18 05:43:19;;;;;;;15.83;8.20;;;6.90;99.90;;;;;;5056258;28;20955;-84
2021/12/18 05:45:49;;;;;;;11.93;6.18;;;6.90;99.90;;;;;;5059661;28;21116;-82
2021/12/18 05:48:17;;;;;;;13.47;7.40;;;6.90;99.90;;;;;;5057827;28;20209;-81
2021/12/18 05:50:46;;;;;;;12.10;6.30;;;6.90;99.90;;;;;;5061890;28;20493;-80
2021/12/18 05:53:14;;;;;;;13.40;7.20;;;6.90;99.90;;;;;;5058156;28;20452;-84
2021/12/18 05:55:43;;;;;;;13.40;7.20;;;6.80;99.90;;;;;;5057011;28;20450;-82
2021/12/18 05:58:11;;;;;;;11.20;6.13;;;6.80;99.90;;;;;;5050327;28;20461;-83
2021/12/18 06:00:39;;;;;;;11.93;6.77;;;7.00;99.90;;;;;;5057959;28;20487;-82
2021/12/18 06:03:09;;;;;;;13.67;6.37;;;7.00;99.90;;;;;;5058557;28;20479;-82
2021/12/18 06:05:37;;;;;;;12.50;6.87;;;6.90;99.90;;;;;;5060672;28;20982;-84
2021/12/18 06:08:10;;;;;;;14.87;7.07;;;6.90;99.90;;;;;;5056761;28;20469;-80
2021/12/18 06:10:39;;;;;;;12.40;5.80;;;7.10;99.90;;;;;;5055352;28;20488;-82
2021/12/18 06:13:09;;;;;;;12.83;6.43;;;6.80;99.90;;;;;;5059396;28;20482;-82
2021/12/18 06:15:37;;;;;;;15.33;6.83;;;6.80;99.90;;;;;;5059363;28;20865;-82
2021/12/18 06:18:05;;;;;;;12.37;6.97;;;6.80;99.90;;;;;;5062124;28;20469;-82
2021/12/18 06:20:35;;;;;;;15.23;6.60;;;6.80;99.90;;;;;;5058887;28;20825;-85
2021/12/18 06:23:03;;;;;;;12.40;6.57;;;6.70;99.90;;;;;;5060456;28;20462;-81
2021/12/18 06:25:31;;;;;;;15.90;7.20;;;6.70;99.90;;;;;;5056877;28;20454;-84
2021/12/18 06:27:59;;;;;;;12.27;6.60;;;6.70;99.90;;;;;;5059901;28;20459;-84
2021/12/18 06:30:27;;;;;;;8.40;5.47;;;6.70;99.90;;;;;;5056152;28;20479;-83
2021/12/18 06:32:56;;;;;;;11.53;6.90;;;6.70;99.90;;;;;;5061676;28;20458;-84
2021/12/18 06:35:25;;;;;;;14.87;7.60;;;6.80;99.90;;;;;;5059958;28;20463;-83
2021/12/18 06:37:55;;;;;;;11.83;6.37;;;6.80;99.90;;;;;;5048008;28;20913;-81
2021/12/18 06:40:23;;;;;;;15.43;7.30;;;6.80;99.90;;;;;;5061109;28;20804;-82
2021/12/18 06:42:51;;;;;;;13.07;6.57;;;6.80;99.90;;;;;;5054762;28;21044;-83
2021/12/18 06:45:23;;;;;;;15.30;8.37;;;6.80;99.90;;;;;;5054321;28;20544;-81
2021/12/18 06:47:52;;;;;;;15.07;7.75;;;6.80;99.90;;;;;;5055907;28;20473;-81
2021/12/18 06:50:21;;;;;;;17.53;7.70;;;6.70;99.90;;;;;;5061577;28;20712;-83
2021/12/18 06:52:49;;;;;;;11.67;6.70;;;6.80;99.90;;;;;;5065562;28;20520;-79
2021/12/18 06:55:19;;;;;;;15.97;6.60;;;6.80;99.90;;;;;;5050677;28;20455;-84
2021/12/18 06:57:47;;;;;;;16.53;6.70;;;6.90;99.90;;;;;;5061507;28;20826;-81
2021/12/18 07:00:17;;;;;;;10.60;5.80;;;6.80;99.90;;;;;;5060166;28;20874;-81
2021/12/18 07:02:45;;;;;;;10.80;6.10;;;6.90;99.90;;;;;;5047463;28;20529;-82
2021/12/18 07:05:13;;;;;;;8.57;5.60;;;6.90;99.90;;;;;;5061894;28;20451;-84
2021/12/18 07:07:42;;;;;;;11.60;6.20;;;6.90;99.90;;;;;;5065131;28;20508;-80
2021/12/18 07:10:14;;;;;;;13.83;7.43;;;6.80;99.90;;;;;;5067447;28;20467;-82
2021/12/18 07:12:44;;;;;;;17.50;7.00;;;6.80;99.90;;;;;;5068202;28;20522;-80
2021/12/18 07:15:13;;;;;;;15.07;6.53;;;6.80;99.90;;;;;;5066195;28;20557;-79
2021/12/18 07:17:41;;;;;;;13.50;6.87;;;6.80;99.90;;;;;;5066255;28;20656;-84
2021/12/18 07:20:11;;;;;;;14.17;7.23;;;6.80;99.90;;;;;;5063915;28;20511;-81
2021/12/18 07:22:40;;;;;;;16.33;7.97;;;6.80;99.90;;;;;;5061807;28;20528;-82
2021/12/18 07:25:09;;;;;;;16.67;9.70;;;6.80;99.90;;;;;;5064658;28;20447;-81
2021/12/18 07:27:38;;;;;;;10.40;5.80;;;6.50;99.90;;;;;;5056663;28;20490;-81
2021/12/18 07:30:09;;;;;;;14.30;8.27;;;6.80;99.90;;;;;;5064141;28;21415;-82
2021/12/18 07:32:38;;;;;;;16.57;7.40;;;6.80;99.90;;;;;;5050996;28;20467;-81
2021/12/18 07:35:07;;;;;;;12.77;6.33;;;6.70;99.90;;;;;;5057076;28;20466;-80
2021/12/18 07:37:36;;;;;;;14.10;6.97;;;6.70;99.90;;;;;;5063294;28;20446;-80
2021/12/18 07:40:05;;;;;;;13.70;7.13;;;6.70;99.90;;;;;;5057087;28;20478;-83
2021/12/18 07:42:34;;;;;;;13.50;5.63;;;6.70;99.90;;;;;;5058841;28;20490;-81
2021/12/18 07:45:03;;;;;;;12.50;6.67;;;6.80;99.90;;;;;;5056094;28;21005;-80
2021/12/18 07:47:32;;;;;;;17.30;8.50;;;6.80;99.90;;;;;;5056840;28;20478;-83
2021/12/18 07:50:02;;;;;;;15.90;7.60;;;6.80;99.90;;;;;;5060536;28;20894;-82
2021/12/18 07:52:30;;;;;;;15.05;8.55;;;6.80;99.90;;;;;;5054720;28;20530;-82
2021/12/18 07:54:59;;;;;;;10.90;5.93;;;6.70;99.90;;;;;;5057219;28;20208;-82
2021/12/18 07:57:27;;;;;;;15.33;6.23;;;6.70;99.90;;;;;;5050555;28;20459;-83
2021/12/18 07:59:55;;;;;;;14.30;6.00;;;6.70;99.90;;;;;;5060123;28;20474;-81
2021/12/18 08:02:23;;;;;;;10.30;5.20;;;6.70;99.90;;;;;;5053024;28;20486;-83
2021/12/18 08:04:53;;;;;;;10.93;5.50;;;6.80;99.90;;;;;;5059514;28;20446;-84
2021/12/18 08:07:21;;;;;;;13.15;6.07;;;7.00;99.90;;;;;;5062274;28;20458;-83
2021/12/18 08:09:49;;;;;;;14.00;5.83;;;6.80;99.90;;;;;;5046888;28;20509;-82
2021/12/18 08:12:17;;;;;;;9.40;5.40;;;6.90;99.90;;;;;;5056823;28;20455;-81
2021/12/18 08:14:46;;;;;;;10.35;6.03;;;6.90;99.90;;;;;;5061917;28;20455;-81
2021/12/18 08:17:14;;;;;;;14.33;6.13;;;6.80;99.90;;;;;;5061956;28;20235;-81
2021/12/18 08:19:46;;;;;;;11.10;5.23;;;6.80;99.90;;;;;;5062346;28;20849;-83
2021/12/18 08:22:16;;;;;;;11.67;6.77;;;6.80;99.90;;;;;;5056261;28;20478;-82
2021/12/18 08:24:44;;;;;;;8.13;4.87;;;6.70;99.90;;;;;;5059087;28;20496;-81
2021/12/18 08:27:12;;;;;;;16.00;5.23;;;6.80;99.90;;;;;;5061764;28;20981;-81
2021/12/18 08:29:41;;;;;;;9.93;5.60;;;6.90;99.90;;;;;;5042404;28;20483;-84
2021/12/18 08:32:09;;;;;;;11.07;5.10;;;6.80;99.90;;;;;;5058981;28;20456;-84
2021/12/18 08:34:37;;;;;;;10.43;6.23;;;6.80;99.90;;;;;;5045759;28;20463;-80
2021/12/18 08:37:05;;;;;;;12.80;5.87;;;6.90;99.90;;;;;;5062252;28;20459;-83
2021/12/18 08:39:35;;;;;;;13.00;5.07;;;6.80;99.90;;;;;;5066074;28;20466;-82
2021/12/18 08:42:05;;;;;;;9.90;5.07;;;6.90;99.90;;;;;;5062142;28;20478;-84
2021/12/18 08:44:34;;;;;;;10.50;5.13;;;6.80;99.90;;;;;;5063228;28;20458;-82
2021/12/18 08:47:03;;;;;;;7.50;3.93;;;6.80;99.90;;;;;;5065709;28;21502;-82
2021/12/18 08:49:31;;;;;;;10.03;5.23;;;6.90;99.90;;;;;;5063869;28;20488;-82
2021/12/18 08:52:00;;;;;;;13.20;5.93;;;6.90;99.90;;;;;;5056099;28;20881;-83
2021/12/18 08:54:28;;;;;;;9.30;5.30;;;6.90;99.90;;;;;;5063960;28;20473;-83
2021/12/18 08:57:10;;;;;;;6.03;4.53;;;6.90;99.90;;;;;;5064204;28;20507;-82
2021/12/18 08:59:39;;;;;;;8.93;5.33;;;6.90;99.90;;;;;;5062091;28;20913;-81
2021/12/18 09:02:08;;;;;;;10.40;6.30;;;6.90;99.90;;;;;;5060017;28;20524;-83
2021/12/18 09:04:38;;;;;;;10.47;6.00;;;6.90;99.90;;;;;;5065827;28;20465;-84
2021/12/18 09:07:07;;;;;;;10.23;5.40;;;6.90;99.90;;;;;;5063319;28;20821;-80
2021/12/18 09:09:39;;;;;;;12.90;5.43;;;6.90;99.90;;;;;;5063101;28;20962;-81
2021/12/18 09:12:11;;;;;;;12.00;6.33;;;7.10;99.90;;;;;;5062576;28;20454;-81
2021/12/18 09:14:41;;;;;;;10.73;4.87;;;6.90;99.90;;;;;;5063489;28;20446;-81
2021/12/18 09:17:10;;;;;;;10.50;5.50;;;6.90;99.90;;;;;;5058470;28;20983;-80
2021/12/18 09:19:38;;;;;;;9.93;5.60;;;7.00;99.90;;;;;;5052546;28;20494;-81
2021/12/18 09:22:09;;;;;;;8.33;5.30;;;7.00;99.90;;;;;;5063270;28;20490;-84
2021/12/18 09:24:37;;;;;;;10.20;4.90;;;7.00;99.90;;;;;;5063482;28;20573;-83
2021/12/18 09:27:07;;;;;;;9.63;5.77;;;7.00;99.90;;;;;;5062225;28;20953;-80
2021/12/18 09:29:37;;;;;;;13.37;5.17;;;7.00;99.90;;;;;;5062934;28;20489;-83
2021/12/18 09:32:05;;;;;;;9.73;6.33;;;7.00;99.90;;;;;;5058255;28;20465;-85
2021/12/18 09:34:34;;;;;;;11.77;5.33;;;7.00;99.90;;;;;;5062045;28;20463;-83
2021/12/18 09:37:02;;;;;;;7.23;4.40;;;7.20;99.90;;;;;;5061878;28;20465;-80
2021/12/18 09:39:31;;;;;;;10.33;6.10;;;7.00;99.90;;;;;;5049222;28;20483;-82
2021/12/18 09:41:59;;;;;;;11.43;6.07;;;7.10;99.90;;;;;;5057050;28;20528;-81
2021/12/18 09:44:32;;;;;;;7.30;4.87;;;7.10;99.90;;;;;;5061035;28;20604;-83
2021/12/18 09:47:04;;;;;;;11.60;5.17;;;7.10;99.90;;;;;;5063640;28;20554;-83
2021/12/18 09:49:33;;;;;;;9.70;5.33;;;7.10;99.90;;;;;;5053164;28;20524;-85
2021/12/18 09:52:02;;;;;;;11.87;5.50;;;7.10;99.90;;;;;;5058497;28;20888;-81
2021/12/18 09:54:31;;;;;;;11.53;4.73;;;7.00;99.90;;;;;;5061187;28;20463;-82
2021/12/18 09:56:59;;;;;;;13.57;6.07;;;7.00;99.90;;;;;;5062001;28;20469;-81
2021/12/18 09:59:27;;;;;;;6.43;4.50;;;7.00;99.90;;;;;;5060564;28;20478;-82
2021/12/18 10:01:55;;;;;;;8.80;4.87;;;7.00;99.90;;;;;;5061316;28;20512;-81
2021/12/18 10:04:29;;;;;;;10.50;6.33;;;7.10;99.90;;;;;;5057890;28;20478;-83
2021/12/18 10:06:59;;;;;;;7.50;4.43;;;7.10;99.90;;;;;;5062783;28;21051;-82
2021/12/18 10:09:33;;;;;;;6.57;4.87;;;7.10;99.90;;;;;;5060765;28;20487;-84
2021/12/18 10:12:05;;;;;;;8.37;5.23;;;7.10;99.90;;;;;;5063176;28;20465;-82
2021/12/18 10:14:37;;;;;;;10.03;5.40;;;7.10;99.90;;;;;;5061849;28;20993;-82
2021/12/18 10:17:17;;;;;;;9.93;5.37;;;7.10;99.90;;;;;;5062845;28;20466;-81
2021/12/18 10:19:47;;;;;;;9.13;5.10;;;7.10;99.90;;;;;;5054380;28;20486;-82
2021/12/18 10:22:16;;;;;;;9.43;4.87;;;7.10;99.90;;;;;;5062042;28;20616;-83
2021/12/18 10:24:47;;;;;;;9.13;5.20;;;6.90;99.90;;;;;;5061791;28;20455;-83
2021/12/18 10:27:19;;;;;;;10.30;4.90;;;6.80;99.90;;;;;;5055694;28;20466;-83
2021/12/18 10:29:49;;;;;;;9.27;5.07;;;6.60;99.90;;;;;;5049563;28;20549;-84
2021/12/18 10:32:20;;;;;;;9.67;4.50;;;6.50;99.90;;;;;;5062175;28;20463;-80
2021/12/18 10:34:53;;;;;;;10.50;5.43;;;6.40;99.90;;;;;;5063310;28;20459;-83
2021/12/18 10:37:24;;;;;;;12.03;5.83;;;6.50;99.90;;;;;;5062827;28;20545;-82
2021/12/18 10:40:01;;;;;;;7.57;4.90;;;6.60;99.90;;;;;;5057868;28;20470;-81
2021/12/18 10:42:31;;;;;;;9.90;4.50;;;6.70;99.90;;;;;;5056991;28;20459;-85
2021/12/18 10:45:10;;;;;;;11.03;5.20;;;6.80;99.90;;;;;;5061180;28;20548;-84
2021/12/18 10:47:58;;;;;;;6.50;4.70;;;6.80;99.90;;;;;;5060491;28;20450;-80
2021/12/18 10:50:32;;;;;;;11.23;6.33;;;6.80;99.90;;;;;;5056315;28;20490;-83
2021/12/18 10:53:04;;;;;;;8.50;4.93;;;6.80;99.90;;;;;;5060385;28;20454;-82
2021/12/18 10:55:36;;;;;;;7.13;4.83;;;6.80;99.90;;;;;;5055485;28;20531;-81
2021/12/18 10:58:06;;;;;;;9.73;5.70;;;6.80;99.90;;;;;;5055174;28;20453;-82
2021/12/18 11:00:47;;;;;;;10.63;6.97;;;6.80;99.90;;;;;;5060669;28;20893;-82
2021/12/18 11:03:26;;;;;;;12.17;6.70;;;6.80;99.90;;;;;;5049666;28;20480;-84
2021/12/18 11:06:14;;;;;;;13.00;5.77;;;6.90;99.90;;;;;;5057893;28;20462;-83
2021/12/18 11:09:08;;;;;;;9.87;6.27;;;6.90;99.90;;;;;;5056322;28;20757;-83
2021/12/18 11:14:36;;;;;;;9.60;6.20;;;7.00;99.90;;;;;;5061625;28;20464;-84
2021/12/18 11:17:05;;;;;;;10.97;7.23;;;7.00;99.90;;;;;;5061212;28;20656;-81
2021/12/18 11:19:35;;;;;;;10.80;6.77;;;7.00;99.90;;;;;;5060153;28;20478;-82
2021/12/18 11:22:07;;;;;;;10.27;7.10;;;7.00;99.90;;;;;;5059192;28;20459;-80
2021/12/18 11:24:37;;;;;;;10.47;6.77;;;7.10;99.90;;;;;;5060648;28;20517;-82
2021/12/18 11:27:08;;;;;;;10.90;7.30;;;7.10;99.90;;;;;;5060223;28;20451;-82
2021/12/18 11:29:44;;;;;;;12.53;6.63;;;7.10;99.90;;;;;;5052775;28;20742;-83
2021/12/18 11:32:15;;;;;;;10.10;7.03;;;7.20;99.90;;;;;;5053274;28;20983;-81
2021/12/18 11:34:45;;;;;;;11.80;7.57;;;7.20;99.90;;;;;;5055091;28;20465;-83
2021/12/18 11:37:17;;;;;;;11.73;7.43;;;7.20;99.90;;;;;;5057376;28;20484;-83
2021/12/18 11:39:47;;;;;;;8.70;5.47;;;7.30;99.90;;;;;;5059677;28;20508;-83
2021/12/18 11:42:16;;;;;;;11.33;6.40;;;7.20;99.90;;;;;;5059783;28;20962;-83
2021/12/18 11:44:51;;;;;;;11.60;6.73;;;7.30;99.90;;;;;;5055431;28;20492;-83
2021/12/18 11:47:32;;;;;;;8.07;5.57;;;7.20;99.90;;;;;;5056877;28;20464;-81
2021/12/18 11:50:05;;;;;;;11.07;6.10;;;7.20;99.90;;;;;;5058292;28;20840;-80
2021/12/18 11:52:57;;;;;;;12.07;6.50;;;7.20;99.90;;;;;;5055447;28;20470;-82
2021/12/18 11:55:27;;;;;;;7.23;5.30;;;7.20;99.90;;;;;;5061119;28;20455;-84
2021/12/18 11:57:58;;;;;;;9.40;6.23;;;7.20;99.90;;;;;;5051810;28;20923;-81
2021/12/18 12:00:39;;;;;;;11.57;6.30;;;7.20;99.90;;;;;;5059697;28;20478;-82
2021/12/18 12:03:09;;;;;;;8.07;5.37;;;7.10;99.90;;;;;;5061408;28;20473;-82
2021/12/18 12:05:41;;;;;;;6.77;5.10;;;7.10;99.90;;;;;;5055178;28;20534;-83
2021/12/18 12:08:27;;;;;;;9.57;5.43;;;7.20;99.90;;;;;;5052681;28;20485;-82
2021/12/18 12:11:16;;;;;;;6.93;5.17;;;7.20;99.90;;;;;;5060575;28;20478;-85
2021/12/18 12:14:08;;;;;;;13.87;6.13;;;7.20;99.90;;;;;;5053498;28;20463;-82
2021/12/18 12:17:21;;;;;;;8.60;4.70;;;7.00;99.90;;;;;;5050692;28;20950;-82
2021/12/18 12:20:05;;;;;;;7.20;5.13;;;7.00;99.90;;;;;;5029661;28;20479;-81
2021/12/18 12:22:45;;;;;;;9.07;5.33;;;6.70;99.90;;;;;;5053566;28;20450;-82
2021/12/18 12:25:18;;;;;;;8.13;4.80;;;7.00;99.90;;;;;;5054051;28;20476;-81
2021/12/18 12:27:48;;;;;;;9.00;5.17;;;7.10;99.90;;;;;;5051573;28;20785;-82
2021/12/18 12:30:31;;;;;;;8.83;4.17;;;7.10;99.90;;;;;;5054103;28;20485;-84
2021/12/18 12:33:02;;;;;;;4.70;4.07;;;7.10;99.90;;;;;;5057971;28;22297;-82
2021/12/18 12:36:13;;;;;;;7.20;3.80;;;7.20;99.90;;;;;;5059555;28;20887;-84
2021/12/18 12:38:53;;;;;;;9.80;5.60;;;7.10;99.90;;;;;;5045166;28;20990;-84
2021/12/18 12:41:37;;;;;;;7.33;4.90;;;7.20;99.90;;;;;;5049939;28;20893;-82
2021/12/18 12:44:14;;;;;;;8.83;5.57;;;7.20;99.90;;;;;;5062706;28;20482;-82
2021/12/18 12:46:44;;;;;;;8.33;5.90;;;7.20;99.90;;;;;;5054474;28;20458;-83
2021/12/18 12:49:16;;;;;;;7.83;5.00;;;7.20;99.90;;;;;;5061811;28;20446;-82
2021/12/18 12:52:10;;;;;;;12.30;5.10;;;7.10;99.90;;;;;;5077843;28;20962;-80
2021/12/18 12:54:58;;;;;;;5.77;4.23;;;7.00;99.90;;;;;;5056372;28;20463;-81
2021/12/18 12:57:51;;;;;;;5.97;3.40;;;6.80;99.90;;;;;;5056256;28;20950;-82
2021/12/18 13:00:43;;;;;;;7.97;4.40;;;6.80;99.90;;;;;;5046124;28;20886;-83
2021/12/18 13:03:37;;;;;;;5.40;4.70;;;6.80;99.90;;;;;;5045833;28;20537;-82
2021/12/18 13:06:09;;;;;;;8.33;4.80;;;6.90;99.90;;;;;;5060367;28;20439;-85
2021/12/18 13:08:39;;;;;;;7.07;4.53;;;6.90;99.90;;;;;;5060910;28;20454;-81
2021/12/18 13:11:10;;;;;;;11.23;6.07;;;6.90;99.90;;;;;;5059270;28;20489;-81
2021/12/18 13:13:39;;;;;;;9.30;5.60;;;6.80;99.90;;;;;;5057179;28;20485;-82
2021/12/18 13:16:10;;;;;;;10.40;5.43;;;6.40;99.90;;;;;;5060766;28;20551;-81
2021/12/18 13:18:41;;;;;;;8.37;5.20;;;6.40;99.90;;;;;;5061406;28;21011;-83
2021/12/18 13:21:11;;;;;;;9.40;5.90;;;6.70;99.90;;;;;;5061316;28;21319;-81
2021/12/18 13:23:46;;;;;;;7.20;4.80;;;6.60;99.90;;;;;;5056461;28;20459;-81
2021/12/18 13:26:16;;;;;;;9.47;6.10;;;6.70;99.90;;;;;;5058713;28;20478;-82
2021/12/18 13:28:52;;;;;;;13.07;6.93;;;6.90;99.90;;;;;;5055408;28;20971;-81
2021/12/18 13:31:22;;;;;;;11.00;7.33;;;7.00;99.90;;;;;;5067010;28;20474;-83
2021/12/18 13:34:00;;;;;;;10.50;5.60;;;7.20;99.90;;;;;;5062930;28;20527;-81
2021/12/18 13:36:39;;;;;;;9.33;7.43;;;7.30;99.90;;;;;;5061136;28;20450;-81
2021/12/18 13:39:09;;;;;;;8.20;6.03;;;7.30;99.90;;;;;;5054584;28;20488;-79
2021/12/18 13:41:37;;;;;;;9.93;6.70;;;7.40;99.90;;;;;;5067846;28;20466;-83
2021/12/18 13:44:07;;;;;;;10.53;5.60;;;7.50;99.90;;;;;;5067860;28;20451;-82
2021/12/18 13:46:36;;;;;;;8.17;6.07;;;7.50;99.90;;;;;;5068491;28;20443;-80